sensor_id;sensor_type;location;lat;lon;timestamp;P1;durP1;ratioP1;P2;durP2;ratioP2
15216;SDS011;7711;46.634;14.318;2022-08-19T00:00:09;8.68;;;5.82;;
15216;SDS011;7711;46.634;14.318;2022-08-19T00:02:42;14.90;;;6.30;;
15216;SDS011;7711;46.634;14.318;2022-08-19T00:05:11;12.65;;;6.80;;
15216;SDS011;7711;46.634;14.318;2022-08-19T00:07:41;12.80;;;6.60;;
15216;SDS011;7711;46.634;14.318;2022-08-19T00:10:11;14.15;;;6.90;;
15216;SDS011;7711;46.634;14.318;2022-08-19T00:12:41;11.25;;;6.28;;
15216;SDS011;7711;46.634;14.318;2022-08-19T00:15:11;11.23;;;6.15;;
15216;SDS011;7711;46.634;14.318;2022-08-19T00:17:43;9.68;;;6.53;;
15216;SDS011;7711;46.634;14.318;2022-08-19T00:20:12;10.43;;;6.32;;
15216;SDS011;7711;46.634;14.318;2022-08-19T00:22:44;11.25;;;6.43;;
15216;SDS011;7711;46.634;14.318;2022-08-19T00:25:12;14.07;;;6.68;;
15216;SDS011;7711;46.634;14.318;2022-08-19T00:27:41;12.05;;;6.18;;
15216;SDS011;7711;46.634;14.318;2022-08-19T00:30:09;10.38;;;5.57;;
15216;SDS011;7711;46.634;14.318;2022-08-19T00:32:37;14.88;;;5.78;;
15216;SDS011;7711;46.634;14.318;2022-08-19T00:35:07;8.10;;;5.95;;
15216;SDS011;7711;46.634;14.318;2022-08-19T00:37:34;10.10;;;6.00;;
15216;SDS011;7711;46.634;14.318;2022-08-19T00:40:03;11.65;;;5.78;;
15216;SDS011;7711;46.634;14.318;2022-08-19T00:42:31;10.40;;;6.30;;
15216;SDS011;7711;46.634;14.318;2022-08-19T00:45:02;8.48;;;5.75;;
15216;SDS011;7711;46.634;14.318;2022-08-19T00:47:38;11.30;;;6.57;;
15216;SDS011;7711;46.634;14.318;2022-08-19T00:50:11;10.10;;;6.38;;
15216;SDS011;7711;46.634;14.318;2022-08-19T00:52:43;9.75;;;6.63;;
15216;SDS011;7711;46.634;14.318;2022-08-19T00:55:14;9.95;;;7.07;;
15216;SDS011;7711;46.634;14.318;2022-08-19T00:57:45;9.18;;;6.40;;
15216;SDS011;7711;46.634;14.318;2022-08-19T01:00:17;10.48;;;7.00;;
15216;SDS011;7711;46.634;14.318;2022-08-19T01:02:47;10.55;;;6.80;;
15216;SDS011;7711;46.634;14.318;2022-08-19T01:05:19;9.98;;;6.55;;
15216;SDS011;7711;46.634;14.318;2022-08-19T01:07:48;12.75;;;7.22;;
15216;SDS011;7711;46.634;14.318;2022-08-19T01:10:21;15.70;;;7.32;;
15216;SDS011;7711;46.634;14.318;2022-08-19T01:12:51;11.88;;;6.68;;
15216;SDS011;7711;46.634;14.318;2022-08-19T01:15:23;9.82;;;6.15;;
15216;SDS011;7711;46.634;14.318;2022-08-19T01:17:54;8.77;;;5.82;;
15216;SDS011;7711;46.634;14.318;2022-08-19T01:20:25;13.95;;;6.60;;
15216;SDS011;7711;46.634;14.318;2022-08-19T01:22:54;9.23;;;6.72;;
15216;SDS011;7711;46.634;14.318;2022-08-19T01:25:24;9.40;;;5.88;;
15216;SDS011;7711;46.634;14.318;2022-08-19T01:27:53;9.40;;;6.00;;
15216;SDS011;7711;46.634;14.318;2022-08-19T01:30:22;12.38;;;6.65;;
15216;SDS011;7711;46.634;14.318;2022-08-19T01:32:52;11.82;;;5.60;;
15216;SDS011;7711;46.634;14.318;2022-08-19T01:35:23;7.60;;;5.43;;
15216;SDS011;7711;46.634;14.318;2022-08-19T01:37:53;7.80;;;5.90;;
15216;SDS011;7711;46.634;14.318;2022-08-19T01:40:24;10.48;;;6.15;;
15216;SDS011;7711;46.634;14.318;2022-08-19T01:42:58;11.52;;;6.30;;
15216;SDS011;7711;46.634;14.318;2022-08-19T01:45:27;8.95;;;6.03;;
15216;SDS011;7711;46.634;14.318;2022-08-19T01:47:56;9.23;;;6.10;;
15216;SDS011;7711;46.634;14.318;2022-08-19T01:50:25;10.02;;;5.72;;
15216;SDS011;7711;46.634;14.318;2022-08-19T01:52:55;9.20;;;6.22;;
15216;SDS011;7711;46.634;14.318;2022-08-19T01:55:25;11.10;;;5.82;;
15216;SDS011;7711;46.634;14.318;2022-08-19T01:57:57;7.47;;;5.20;;
15216;SDS011;7711;46.634;14.318;2022-08-19T02:00:29;8.77;;;5.85;;
15216;SDS011;7711;46.634;14.318;2022-08-19T02:02:59;9.77;;;6.18;;
15216;SDS011;7711;46.634;14.318;2022-08-19T02:05:28;10.57;;;6.13;;
15216;SDS011;7711;46.634;14.318;2022-08-19T02:08:01;10.38;;;5.60;;
15216;SDS011;7711;46.634;14.318;2022-08-19T02:10:28;13.40;;;6.63;;
15216;SDS011;7711;46.634;14.318;2022-08-19T02:12:55;10.30;;;5.80;;
15216;SDS011;7711;46.634;14.318;2022-08-19T02:15:22;16.67;;;6.75;;
15216;SDS011;7711;46.634;14.318;2022-08-19T02:17:51;10.95;;;6.38;;
15216;SDS011;7711;46.634;14.318;2022-08-19T02:20:21;8.13;;;6.50;;
15216;SDS011;7711;46.634;14.318;2022-08-19T02:22:49;15.65;;;7.05;;
15216;SDS011;7711;46.634;14.318;2022-08-19T02:25:20;14.18;;;7.25;;
15216;SDS011;7711;46.634;14.318;2022-08-19T02:27:47;13.00;;;6.97;;
15216;SDS011;7711;46.634;14.318;2022-08-19T02:30:15;16.58;;;8.00;;
15216;SDS011;7711;46.634;14.318;2022-08-19T02:32:44;11.07;;;7.80;;
15216;SDS011;7711;46.634;14.318;2022-08-19T02:35:13;15.85;;;8.50;;
15216;SDS011;7711;46.634;14.318;2022-08-19T02:37:41;13.85;;;7.88;;
15216;SDS011;7711;46.634;14.318;2022-08-19T02:40:27;15.75;;;8.35;;
15216;SDS011;7711;46.634;14.318;2022-08-19T02:42:55;17.27;;;7.97;;
15216;SDS011;7711;46.634;14.318;2022-08-19T02:45:22;15.10;;;7.97;;
15216;SDS011;7711;46.634;14.318;2022-08-19T02:47:50;17.60;;;9.95;;
15216;SDS011;7711;46.634;14.318;2022-08-19T02:50:17;17.85;;;10.38;;
15216;SDS011;7711;46.634;14.318;2022-08-19T02:52:49;14.02;;;9.30;;
15216;SDS011;7711;46.634;14.318;2022-08-19T02:55:19;13.00;;;8.40;;
15216;SDS011;7711;46.634;14.318;2022-08-19T02:57:48;16.80;;;9.60;;
15216;SDS011;7711;46.634;14.318;2022-08-19T03:00:15;13.40;;;8.35;;
15216;SDS011;7711;46.634;14.318;2022-08-19T03:02:43;17.40;;;8.52;;
15216;SDS011;7711;46.634;14.318;2022-08-19T03:05:11;11.43;;;7.47;;
15216;SDS011;7711;46.634;14.318;2022-08-19T03:07:38;13.25;;;7.38;;
15216;SDS011;7711;46.634;14.318;2022-08-19T03:10:06;12.02;;;7.18;;
15216;SDS011;7711;46.634;14.318;2022-08-19T03:12:35;10.10;;;7.28;;
15216;SDS011;7711;46.634;14.318;2022-08-19T03:15:05;12.80;;;7.57;;
15216;SDS011;7711;46.634;14.318;2022-08-19T03:17:34;13.05;;;7.97;;
15216;SDS011;7711;46.634;14.318;2022-08-19T03:20:01;14.30;;;8.80;;
15216;SDS011;7711;46.634;14.318;2022-08-19T03:22:30;12.20;;;8.43;;
15216;SDS011;7711;46.634;14.318;2022-08-19T03:24:59;15.50;;;8.50;;
15216;SDS011;7711;46.634;14.318;2022-08-19T03:27:26;14.20;;;8.48;;
15216;SDS011;7711;46.634;14.318;2022-08-19T03:29:54;15.13;;;8.60;;
15216;SDS011;7711;46.634;14.318;2022-08-19T03:32:23;15.98;;;9.50;;
15216;SDS011;7711;46.634;14.318;2022-08-19T03:34:50;16.77;;;9.80;;
15216;SDS011;7711;46.634;14.318;2022-08-19T03:37:17;13.35;;;10.15;;
15216;SDS011;7711;46.634;14.318;2022-08-19T03:39:46;13.32;;;9.27;;
15216;SDS011;7711;46.634;14.318;2022-08-19T03:42:13;17.13;;;10.20;;
15216;SDS011;7711;46.634;14.318;2022-08-19T03:44:42;13.95;;;9.52;;
15216;SDS011;7711;46.634;14.318;2022-08-19T03:47:11;12.93;;;9.10;;
15216;SDS011;7711;46.634;14.318;2022-08-19T03:49:42;12.15;;;8.95;;
15216;SDS011;7711;46.634;14.318;2022-08-19T03:52:11;11.63;;;8.18;;
15216;SDS011;7711;46.634;14.318;2022-08-19T03:54:39;11.98;;;8.35;;
15216;SDS011;7711;46.634;14.318;2022-08-19T03:57:11;12.65;;;8.20;;
15216;SDS011;7711;46.634;14.318;2022-08-19T03:59:39;12.82;;;8.30;;
15216;SDS011;7711;46.634;14.318;2022-08-19T04:02:09;9.68;;;7.90;;
15216;SDS011;7711;46.634;14.318;2022-08-19T04:04:40;10.10;;;7.40;;
15216;SDS011;7711;46.634;14.318;2022-08-19T04:07:09;11.25;;;8.32;;
15216;SDS011;7711;46.634;14.318;2022-08-19T04:09:43;13.30;;;8.48;;
15216;SDS011;7711;46.634;14.318;2022-08-19T04:12:11;15.25;;;8.93;;
15216;SDS011;7711;46.634;14.318;2022-08-19T04:14:38;13.45;;;8.65;;
15216;SDS011;7711;46.634;14.318;2022-08-19T04:17:06;12.63;;;8.70;;
15216;SDS011;7711;46.634;14.318;2022-08-19T04:19:39;11.18;;;8.13;;
15216;SDS011;7711;46.634;14.318;2022-08-19T04:22:09;12.88;;;8.95;;
15216;SDS011;7711;46.634;14.318;2022-08-19T04:24:37;12.13;;;8.82;;
15216;SDS011;7711;46.634;14.318;2022-08-19T04:27:08;16.10;;;10.23;;
15216;SDS011;7711;46.634;14.318;2022-08-19T04:29:36;14.80;;;10.30;;
15216;SDS011;7711;46.634;14.318;2022-08-19T04:32:04;16.60;;;10.68;;
15216;SDS011;7711;46.634;14.318;2022-08-19T04:34:33;14.63;;;10.50;;
15216;SDS011;7711;46.634;14.318;2022-08-19T04:37:04;16.15;;;10.90;;
15216;SDS011;7711;46.634;14.318;2022-08-19T04:39:37;17.67;;;11.85;;
15216;SDS011;7711;46.634;14.318;2022-08-19T04:42:25;18.17;;;11.05;;
15216;SDS011;7711;46.634;14.318;2022-08-19T04:45:05;21.65;;;11.70;;
15216;SDS011;7711;46.634;14.318;2022-08-19T04:47:34;14.20;;;11.48;;
15216;SDS011;7711;46.634;14.318;2022-08-19T04:50:02;20.20;;;11.88;;
15216;SDS011;7711;46.634;14.318;2022-08-19T04:52:31;16.75;;;12.07;;
15216;SDS011;7711;46.634;14.318;2022-08-19T04:55:00;19.38;;;11.88;;
15216;SDS011;7711;46.634;14.318;2022-08-19T04:57:27;17.38;;;11.68;;
15216;SDS011;7711;46.634;14.318;2022-08-19T04:59:54;12.55;;;10.80;;
15216;SDS011;7711;46.634;14.318;2022-08-19T05:02:22;13.57;;;10.55;;
15216;SDS011;7711;46.634;14.318;2022-08-19T05:04:50;9.50;;;7.82;;
15216;SDS011;7711;46.634;14.318;2022-08-19T05:07:22;11.48;;;7.90;;
15216;SDS011;7711;46.634;14.318;2022-08-19T05:09:50;10.55;;;7.05;;
15216;SDS011;7711;46.634;14.318;2022-08-19T05:12:18;10.13;;;7.25;;
15216;SDS011;7711;46.634;14.318;2022-08-19T05:14:45;13.10;;;7.30;;
15216;SDS011;7711;46.634;14.318;2022-08-19T05:17:14;8.18;;;6.10;;
15216;SDS011;7711;46.634;14.318;2022-08-19T05:19:42;8.43;;;6.30;;
15216;SDS011;7711;46.634;14.318;2022-08-19T05:22:26;6.95;;;6.07;;
15216;SDS011;7711;46.634;14.318;2022-08-19T05:25:03;8.00;;;5.78;;
15216;SDS011;7711;46.634;14.318;2022-08-19T05:27:32;7.30;;;5.45;;
15216;SDS011;7711;46.634;14.318;2022-08-19T05:29:59;8.38;;;5.47;;
15216;SDS011;7711;46.634;14.318;2022-08-19T05:32:29;8.27;;;5.82;;
15216;SDS011;7711;46.634;14.318;2022-08-19T05:34:56;10.18;;;6.18;;
15216;SDS011;7711;46.634;14.318;2022-08-19T05:37:23;10.20;;;5.72;;
15216;SDS011;7711;46.634;14.318;2022-08-19T05:39:52;11.70;;;6.40;;
15216;SDS011;7711;46.634;14.318;2022-08-19T05:42:23;7.57;;;5.55;;
15216;SDS011;7711;46.634;14.318;2022-08-19T05:44:54;5.85;;;5.22;;
15216;SDS011;7711;46.634;14.318;2022-08-19T05:47:21;7.68;;;5.75;;
15216;SDS011;7711;46.634;14.318;2022-08-19T05:49:50;7.90;;;5.88;;
15216;SDS011;7711;46.634;14.318;2022-08-19T05:52:19;11.15;;;5.50;;
15216;SDS011;7711;46.634;14.318;2022-08-19T05:54:46;8.85;;;5.53;;
15216;SDS011;7711;46.634;14.318;2022-08-19T05:57:17;6.88;;;5.30;;
15216;SDS011;7711;46.634;14.318;2022-08-19T05:59:50;9.43;;;5.10;;
15216;SDS011;7711;46.634;14.318;2022-08-19T06:02:18;5.63;;;4.65;;
15216;SDS011;7711;46.634;14.318;2022-08-19T06:04:48;9.25;;;4.85;;
15216;SDS011;7711;46.634;14.318;2022-08-19T06:07:17;8.10;;;4.38;;
15216;SDS011;7711;46.634;14.318;2022-08-19T06:09:45;6.88;;;4.10;;
15216;SDS011;7711;46.634;14.318;2022-08-19T06:12:14;5.55;;;4.03;;
15216;SDS011;7711;46.634;14.318;2022-08-19T06:14:43;7.72;;;4.30;;
15216;SDS011;7711;46.634;14.318;2022-08-19T06:17:10;5.65;;;3.63;;
15216;SDS011;7711;46.634;14.318;2022-08-19T06:19:38;5.20;;;3.70;;
15216;SDS011;7711;46.634;14.318;2022-08-19T06:22:06;8.55;;;4.50;;
15216;SDS011;7711;46.634;14.318;2022-08-19T06:24:36;7.10;;;3.88;;
15216;SDS011;7711;46.634;14.318;2022-08-19T06:27:03;8.75;;;3.80;;
15216;SDS011;7711;46.634;14.318;2022-08-19T06:29:33;12.05;;;4.07;;
15216;SDS011;7711;46.634;14.318;2022-08-19T06:32:02;12.25;;;4.18;;
15216;SDS011;7711;46.634;14.318;2022-08-19T06:34:31;9.50;;;3.72;;
15216;SDS011;7711;46.634;14.318;2022-08-19T06:37:02;4.95;;;3.50;;
15216;SDS011;7711;46.634;14.318;2022-08-19T06:39:34;6.72;;;3.58;;
15216;SDS011;7711;46.634;14.318;2022-08-19T06:42:05;5.65;;;3.40;;
15216;SDS011;7711;46.634;14.318;2022-08-19T06:44:37;5.03;;;3.20;;
15216;SDS011;7711;46.634;14.318;2022-08-19T06:47:07;5.68;;;3.53;;
15216;SDS011;7711;46.634;14.318;2022-08-19T06:49:36;6.35;;;3.15;;
15216;SDS011;7711;46.634;14.318;2022-08-19T06:52:08;5.93;;;3.20;;
15216;SDS011;7711;46.634;14.318;2022-08-19T06:54:37;4.38;;;3.05;;
15216;SDS011;7711;46.634;14.318;2022-08-19T06:57:05;5.07;;;3.13;;
15216;SDS011;7711;46.634;14.318;2022-08-19T06:59:34;4.60;;;3.00;;
15216;SDS011;7711;46.634;14.318;2022-08-19T07:02:04;6.15;;;3.35;;
15216;SDS011;7711;46.634;14.318;2022-08-19T07:04:35;6.93;;;3.30;;
15216;SDS011;7711;46.634;14.318;2022-08-19T07:07:04;8.50;;;3.10;;
15216;SDS011;7711;46.634;14.318;2022-08-19T07:09:35;6.60;;;3.20;;
15216;SDS011;7711;46.634;14.318;2022-08-19T07:12:06;4.80;;;2.95;;
15216;SDS011;7711;46.634;14.318;2022-08-19T07:14:35;7.38;;;3.30;;
15216;SDS011;7711;46.634;14.318;2022-08-19T07:17:04;5.03;;;3.10;;
15216;SDS011;7711;46.634;14.318;2022-08-19T07:19:38;3.78;;;3.17;;
15216;SDS011;7711;46.634;14.318;2022-08-19T07:22:06;4.82;;;3.40;;
15216;SDS011;7711;46.634;14.318;2022-08-19T07:24:35;5.72;;;2.90;;
15216;SDS011;7711;46.634;14.318;2022-08-19T07:27:07;8.20;;;3.60;;
15216;SDS011;7711;46.634;14.318;2022-08-19T07:29:37;5.28;;;3.08;;
15216;SDS011;7711;46.634;14.318;2022-08-19T07:32:07;5.53;;;3.30;;
15216;SDS011;7711;46.634;14.318;2022-08-19T07:34:38;5.38;;;3.13;;
15216;SDS011;7711;46.634;14.318;2022-08-19T07:37:11;3.97;;;2.90;;
15216;SDS011;7711;46.634;14.318;2022-08-19T07:39:38;6.07;;;3.40;;
15216;SDS011;7711;46.634;14.318;2022-08-19T07:42:09;6.05;;;3.10;;
15216;SDS011;7711;46.634;14.318;2022-08-19T07:44:41;5.47;;;3.05;;
15216;SDS011;7711;46.634;14.318;2022-08-19T07:47:12;2.97;;;2.60;;
15216;SDS011;7711;46.634;14.318;2022-08-19T07:49:40;3.10;;;2.50;;
15216;SDS011;7711;46.634;14.318;2022-08-19T07:52:10;5.05;;;2.83;;
15216;SDS011;7711;46.634;14.318;2022-08-19T07:54:38;3.33;;;2.40;;
15216;SDS011;7711;46.634;14.318;2022-08-19T07:57:06;5.53;;;2.60;;
15216;SDS011;7711;46.634;14.318;2022-08-19T07:59:37;4.68;;;2.63;;
15216;SDS011;7711;46.634;14.318;2022-08-19T08:02:06;4.93;;;2.75;;
15216;SDS011;7711;46.634;14.318;2022-08-19T08:04:37;4.15;;;2.83;;
15216;SDS011;7711;46.634;14.318;2022-08-19T08:07:22;5.93;;;2.78;;
15216;SDS011;7711;46.634;14.318;2022-08-19T08:10:21;6.45;;;2.90;;
15216;SDS011;7711;46.634;14.318;2022-08-19T08:12:50;4.38;;;2.63;;
15216;SDS011;7711;46.634;14.318;2022-08-19T08:15:18;5.15;;;2.65;;
15216;SDS011;7711;46.634;14.318;2022-08-19T08:17:47;3.97;;;2.70;;
15216;SDS011;7711;46.634;14.318;2022-08-19T08:20:18;4.50;;;2.60;;
15216;SDS011;7711;46.634;14.318;2022-08-19T08:22:49;5.07;;;2.40;;
15216;SDS011;7711;46.634;14.318;2022-08-19T08:25:36;4.63;;;2.50;;
15216;SDS011;7711;46.634;14.318;2022-08-19T08:28:03;5.47;;;2.80;;
15216;SDS011;7711;46.634;14.318;2022-08-19T08:30:30;3.75;;;2.45;;
15216;SDS011;7711;46.634;14.318;2022-08-19T08:33:00;9.98;;;2.50;;
15216;SDS011;7711;46.634;14.318;2022-08-19T08:35:29;4.40;;;2.60;;
15216;SDS011;7711;46.634;14.318;2022-08-19T08:37:59;5.38;;;2.85;;
15216;SDS011;7711;46.634;14.318;2022-08-19T08:40:33;5.00;;;3.15;;
15216;SDS011;7711;46.634;14.318;2022-08-19T08:43:23;5.57;;;2.90;;
15216;SDS011;7711;46.634;14.318;2022-08-19T08:45:57;4.90;;;2.92;;
15216;SDS011;7711;46.634;14.318;2022-08-19T08:48:32;2.33;;;2.10;;
15216;SDS011;7711;46.634;14.318;2022-08-19T08:51:07;4.50;;;2.20;;
15216;SDS011;7711;46.634;14.318;2022-08-19T08:53:40;4.70;;;2.40;;
15216;SDS011;7711;46.634;14.318;2022-08-19T08:56:08;3.92;;;2.20;;
15216;SDS011;7711;46.634;14.318;2022-08-19T08:58:41;4.15;;;2.40;;
15216;SDS011;7711;46.634;14.318;2022-08-19T09:01:14;3.85;;;2.25;;
15216;SDS011;7711;46.634;14.318;2022-08-19T09:03:42;2.85;;;2.13;;
15216;SDS011;7711;46.634;14.318;2022-08-19T09:06:14;3.85;;;2.10;;
15216;SDS011;7711;46.634;14.318;2022-08-19T09:08:52;13.02;;;3.05;;
15216;SDS011;7711;46.634;14.318;2022-08-19T09:11:30;3.40;;;2.00;;
15216;SDS011;7711;46.634;14.318;2022-08-19T09:14:12;6.22;;;2.33;;
15216;SDS011;7711;46.634;14.318;2022-08-19T09:16:45;4.30;;;2.42;;
15216;SDS011;7711;46.634;14.318;2022-08-19T09:19:13;4.72;;;2.30;;
15216;SDS011;7711;46.634;14.318;2022-08-19T09:21:42;5.10;;;2.50;;
15216;SDS011;7711;46.634;14.318;2022-08-19T09:24:10;3.08;;;2.53;;
15216;SDS011;7711;46.634;14.318;2022-08-19T09:26:37;4.70;;;2.50;;
15216;SDS011;7711;46.634;14.318;2022-08-19T09:29:04;4.63;;;2.33;;
15216;SDS011;7711;46.634;14.318;2022-08-19T09:31:32;5.38;;;2.38;;
15216;SDS011;7711;46.634;14.318;2022-08-19T09:33:59;4.35;;;2.80;;
15216;SDS011;7711;46.634;14.318;2022-08-19T09:36:30;4.13;;;2.75;;
15216;SDS011;7711;46.634;14.318;2022-08-19T09:39:00;3.78;;;2.40;;
15216;SDS011;7711;46.634;14.318;2022-08-19T09:41:27;7.40;;;2.75;;
15216;SDS011;7711;46.634;14.318;2022-08-19T09:43:55;4.25;;;2.60;;
15216;SDS011;7711;46.634;14.318;2022-08-19T09:46:25;3.33;;;2.40;;
15216;SDS011;7711;46.634;14.318;2022-08-19T09:48:54;3.22;;;2.42;;
15216;SDS011;7711;46.634;14.318;2022-08-19T09:51:25;4.88;;;2.90;;
15216;SDS011;7711;46.634;14.318;2022-08-19T09:53:58;3.58;;;2.58;;
15216;SDS011;7711;46.634;14.318;2022-08-19T09:56:29;6.10;;;2.50;;
15216;SDS011;7711;46.634;14.318;2022-08-19T09:58:57;3.97;;;2.45;;
15216;SDS011;7711;46.634;14.318;2022-08-19T10:01:26;4.25;;;2.53;;
15216;SDS011;7711;46.634;14.318;2022-08-19T10:03:55;3.92;;;2.40;;
15216;SDS011;7711;46.634;14.318;2022-08-19T10:06:25;4.82;;;2.30;;
15216;SDS011;7711;46.634;14.318;2022-08-19T10:08:57;3.75;;;2.60;;
15216;SDS011;7711;46.634;14.318;2022-08-19T10:11:32;4.00;;;2.20;;
15216;SDS011;7711;46.634;14.318;2022-08-19T10:14:02;2.70;;;2.20;;
15216;SDS011;7711;46.634;14.318;2022-08-19T10:16:32;3.95;;;2.40;;
15216;SDS011;7711;46.634;14.318;2022-08-19T10:19:02;3.30;;;2.28;;
15216;SDS011;7711;46.634;14.318;2022-08-19T10:21:31;2.50;;;2.28;;
15216;SDS011;7711;46.634;14.318;2022-08-19T10:24:02;5.60;;;2.78;;
15216;SDS011;7711;46.634;14.318;2022-08-19T10:26:33;4.78;;;2.50;;
15216;SDS011;7711;46.634;14.318;2022-08-19T10:29:08;3.80;;;2.50;;
15216;SDS011;7711;46.634;14.318;2022-08-19T10:31:36;2.55;;;2.05;;
15216;SDS011;7711;46.634;14.318;2022-08-19T10:34:04;4.03;;;2.50;;
15216;SDS011;7711;46.634;14.318;2022-08-19T10:36:33;3.53;;;2.20;;
15216;SDS011;7711;46.634;14.318;2022-08-19T10:39:03;5.28;;;2.40;;
15216;SDS011;7711;46.634;14.318;2022-08-19T10:41:34;3.35;;;2.30;;
15216;SDS011;7711;46.634;14.318;2022-08-19T10:44:05;2.88;;;2.42;;
15216;SDS011;7711;46.634;14.318;2022-08-19T10:46:37;4.25;;;2.10;;
15216;SDS011;7711;46.634;14.318;2022-08-19T10:49:12;5.13;;;2.08;;
15216;SDS011;7711;46.634;14.318;2022-08-19T10:51:42;3.80;;;2.08;;
15216;SDS011;7711;46.634;14.318;2022-08-19T10:54:30;4.28;;;2.50;;
15216;SDS011;7711;46.634;14.318;2022-08-19T10:57:14;3.22;;;2.30;;
15216;SDS011;7711;46.634;14.318;2022-08-19T10:59:43;4.35;;;2.30;;
15216;SDS011;7711;46.634;14.318;2022-08-19T11:02:11;5.43;;;2.08;;
15216;SDS011;7711;46.634;14.318;2022-08-19T11:04:42;4.82;;;2.30;;
15216;SDS011;7711;46.634;14.318;2022-08-19T11:07:09;4.50;;;2.15;;
15216;SDS011;7711;46.634;14.318;2022-08-19T11:09:37;4.93;;;2.10;;
15216;SDS011;7711;46.634;14.318;2022-08-19T11:12:06;4.03;;;2.03;;
15216;SDS011;7711;46.634;14.318;2022-08-19T11:14:39;4.65;;;2.08;;
15216;SDS011;7711;46.634;14.318;2022-08-19T11:17:06;3.63;;;2.47;;
15216;SDS011;7711;46.634;14.318;2022-08-19T11:19:35;3.33;;;2.30;;
15216;SDS011;7711;46.634;14.318;2022-08-19T11:22:07;4.85;;;2.33;;
15216;SDS011;7711;46.634;14.318;2022-08-19T11:24:35;3.78;;;2.70;;
15216;SDS011;7711;46.634;14.318;2022-08-19T11:27:03;4.13;;;2.33;;
15216;SDS011;7711;46.634;14.318;2022-08-19T11:29:32;3.47;;;2.50;;
15216;SDS011;7711;46.634;14.318;2022-08-19T11:32:02;3.95;;;3.13;;
15216;SDS011;7711;46.634;14.318;2022-08-19T11:34:30;7.30;;;3.30;;
15216;SDS011;7711;46.634;14.318;2022-08-19T11:37:03;4.78;;;3.17;;
15216;SDS011;7711;46.634;14.318;2022-08-19T11:39:33;4.00;;;2.83;;
15216;SDS011;7711;46.634;14.318;2022-08-19T11:42:02;3.15;;;2.60;;
15216;SDS011;7711;46.634;14.318;2022-08-19T11:44:52;3.58;;;3.10;;
15216;SDS011;7711;46.634;14.318;2022-08-19T11:47:21;4.15;;;2.80;;
15216;SDS011;7711;46.634;14.318;2022-08-19T11:49:49;3.25;;;2.35;;
15216;SDS011;7711;46.634;14.318;2022-08-19T11:52:16;3.78;;;2.40;;
15216;SDS011;7711;46.634;14.318;2022-08-19T11:54:45;3.58;;;2.03;;
15216;SDS011;7711;46.634;14.318;2022-08-19T11:57:14;4.55;;;2.20;;
15216;SDS011;7711;46.634;14.318;2022-08-19T11:59:46;5.63;;;2.60;;
15216;SDS011;7711;46.634;14.318;2022-08-19T12:02:14;2.47;;;2.10;;
15216;SDS011;7711;46.634;14.318;2022-08-19T12:04:43;4.28;;;2.40;;
15216;SDS011;7711;46.634;14.318;2022-08-19T12:07:10;3.90;;;2.50;;
15216;SDS011;7711;46.634;14.318;2022-08-19T12:09:41;3.13;;;2.47;;
15216;SDS011;7711;46.634;14.318;2022-08-19T12:12:08;3.42;;;2.40;;
15216;SDS011;7711;46.634;14.318;2022-08-19T12:14:36;3.60;;;2.50;;
15216;SDS011;7711;46.634;14.318;2022-08-19T12:17:04;2.97;;;2.20;;
15216;SDS011;7711;46.634;14.318;2022-08-19T12:19:35;4.63;;;2.40;;
15216;SDS011;7711;46.634;14.318;2022-08-19T12:22:06;5.68;;;2.42;;
15216;SDS011;7711;46.634;14.318;2022-08-19T12:24:34;4.43;;;2.30;;
15216;SDS011;7711;46.634;14.318;2022-08-19T12:27:03;3.45;;;2.15;;
15216;SDS011;7711;46.634;14.318;2022-08-19T12:29:33;3.70;;;2.30;;
15216;SDS011;7711;46.634;14.318;2022-08-19T12:32:03;4.75;;;2.30;;
15216;SDS011;7711;46.634;14.318;2022-08-19T12:34:30;3.08;;;2.17;;
15216;SDS011;7711;46.634;14.318;2022-08-19T12:37:00;4.78;;;2.60;;
15216;SDS011;7711;46.634;14.318;2022-08-19T12:39:33;3.20;;;2.38;;
15216;SDS011;7711;46.634;14.318;2022-08-19T12:42:00;3.67;;;2.50;;
15216;SDS011;7711;46.634;14.318;2022-08-19T12:44:28;4.40;;;2.35;;
15216;SDS011;7711;46.634;14.318;2022-08-19T12:46:58;4.43;;;2.40;;
15216;SDS011;7711;46.634;14.318;2022-08-19T12:49:26;4.10;;;2.50;;
15216;SDS011;7711;46.634;14.318;2022-08-19T12:51:58;3.90;;;2.30;;
15216;SDS011;7711;46.634;14.318;2022-08-19T12:54:27;3.30;;;2.40;;
15216;SDS011;7711;46.634;14.318;2022-08-19T12:56:58;4.97;;;2.63;;
15216;SDS011;7711;46.634;14.318;2022-08-19T12:59:25;4.25;;;2.33;;
15216;SDS011;7711;46.634;14.318;2022-08-19T13:01:54;3.28;;;2.35;;
15216;SDS011;7711;46.634;14.318;2022-08-19T13:04:22;6.05;;;3.10;;
15216;SDS011;7711;46.634;14.318;2022-08-19T13:06:49;5.55;;;2.80;;
15216;SDS011;7711;46.634;14.318;2022-08-19T13:09:18;5.95;;;2.70;;
15216;SDS011;7711;46.634;14.318;2022-08-19T13:11:47;2.70;;;2.20;;
15216;SDS011;7711;46.634;14.318;2022-08-19T13:14:14;3.88;;;2.50;;
15216;SDS011;7711;46.634;14.318;2022-08-19T13:16:43;5.78;;;2.72;;
15216;SDS011;7711;46.634;14.318;2022-08-19T13:19:10;4.75;;;2.70;;
15216;SDS011;7711;46.634;14.318;2022-08-19T13:21:38;3.33;;;2.45;;
15216;SDS011;7711;46.634;14.318;2022-08-19T13:24:08;4.07;;;2.40;;
15216;SDS011;7711;46.634;14.318;2022-08-19T13:26:35;3.40;;;2.40;;
15216;SDS011;7711;46.634;14.318;2022-08-19T13:29:06;6.82;;;2.88;;
15216;SDS011;7711;46.634;14.318;2022-08-19T13:31:52;5.32;;;2.55;;
15216;SDS011;7711;46.634;14.318;2022-08-19T13:34:36;2.95;;;2.60;;
15216;SDS011;7711;46.634;14.318;2022-08-19T13:37:09;5.75;;;2.80;;
15216;SDS011;7711;46.634;14.318;2022-08-19T13:39:36;4.97;;;2.40;;
15216;SDS011;7711;46.634;14.318;2022-08-19T13:42:04;3.58;;;2.65;;
15216;SDS011;7711;46.634;14.318;2022-08-19T13:44:40;5.07;;;2.75;;
15216;SDS011;7711;46.634;14.318;2022-08-19T13:47:11;2.50;;;2.30;;
15216;SDS011;7711;46.634;14.318;2022-08-19T13:49:42;6.07;;;2.63;;
15216;SDS011;7711;46.634;14.318;2022-08-19T13:52:09;4.72;;;2.45;;
15216;SDS011;7711;46.634;14.318;2022-08-19T13:54:39;5.30;;;2.88;;
15216;SDS011;7711;46.634;14.318;2022-08-19T13:57:06;3.45;;;2.30;;
15216;SDS011;7711;46.634;14.318;2022-08-19T13:59:36;4.22;;;2.65;;
15216;SDS011;7711;46.634;14.318;2022-08-19T14:02:07;3.00;;;2.47;;
15216;SDS011;7711;46.634;14.318;2022-08-19T14:04:37;2.88;;;2.50;;
15216;SDS011;7711;46.634;14.318;2022-08-19T14:07:04;2.80;;;2.45;;
15216;SDS011;7711;46.634;14.318;2022-08-19T14:09:31;3.10;;;2.45;;
15216;SDS011;7711;46.634;14.318;2022-08-19T14:12:01;3.63;;;2.50;;
15216;SDS011;7711;46.634;14.318;2022-08-19T14:14:29;3.25;;;2.80;;
15216;SDS011;7711;46.634;14.318;2022-08-19T14:16:56;4.75;;;2.35;;
15216;SDS011;7711;46.634;14.318;2022-08-19T14:19:28;3.90;;;2.28;;
15216;SDS011;7711;46.634;14.318;2022-08-19T14:21:55;2.95;;;2.10;;
15216;SDS011;7711;46.634;14.318;2022-08-19T14:24:25;2.97;;;2.10;;
15216;SDS011;7711;46.634;14.318;2022-08-19T14:26:52;4.40;;;2.20;;
15216;SDS011;7711;46.634;14.318;2022-08-19T14:29:23;3.33;;;2.10;;
15216;SDS011;7711;46.634;14.318;2022-08-19T14:31:50;3.13;;;1.83;;
15216;SDS011;7711;46.634;14.318;2022-08-19T14:34:21;5.90;;;2.15;;
15216;SDS011;7711;46.634;14.318;2022-08-19T14:36:54;2.83;;;2.08;;
15216;SDS011;7711;46.634;14.318;2022-08-19T14:39:21;2.72;;;2.08;;
15216;SDS011;7711;46.634;14.318;2022-08-19T14:41:48;2.10;;;1.90;;
15216;SDS011;7711;46.634;14.318;2022-08-19T14:44:15;2.08;;;1.75;;
15216;SDS011;7711;46.634;14.318;2022-08-19T14:46:43;5.18;;;1.95;;
15216;SDS011;7711;46.634;14.318;2022-08-19T14:49:12;4.60;;;2.15;;
15216;SDS011;7711;46.634;14.318;2022-08-19T14:51:40;2.65;;;2.15;;
15216;SDS011;7711;46.634;14.318;2022-08-19T14:54:12;3.20;;;1.90;;
15216;SDS011;7711;46.634;14.318;2022-08-19T14:56:40;3.40;;;1.80;;
15216;SDS011;7711;46.634;14.318;2022-08-19T14:59:08;4.32;;;2.22;;